Time;durP1;ratioP1;P1;durP2;ratioP2;P2;SDS_P1;SDS_P2;PMS_P1;PMS_P2;Temp;Humidity;BMP_temperature;BMP_pressure;BME280_temperature;BME280_humidity;BME280_pressure;Samples;Min_cycle;Max_cycle;Signal;HPM_P1;HPM_P2
2022/04/12 00:00:14;;;;;;;3.90;3.33;;;11.90;99.90;;;;;;1039222;28;20132;-62
2022/04/12 00:00:45;;;;;;;4.68;3.58;;;11.90;99.90;;;;;;1039568;28;20101;-60
2022/04/12 00:01:16;;;;;;;3.45;2.90;;;11.90;99.90;;;;;;1035169;28;20517;-63
2022/04/12 00:01:47;;;;;;;4.15;2.97;;;11.90;99.90;;;;;;1031110;28;20014;-61
2022/04/12 00:02:17;;;;;;;4.15;2.97;;;11.90;99.90;;;;;;1031206;28;20940;-61
2022/04/12 00:02:48;;;;;;;3.97;3.43;;;11.80;99.90;;;;;;1031510;28;20109;-61
2022/04/12 00:03:18;;;;;;;4.07;3.17;;;11.90;99.90;;;;;;1031433;28;20022;-62
2022/04/12 00:03:49;;;;;;;4.67;3.10;;;11.90;99.90;;;;;;1035724;28;20022;-61
2022/04/12 00:04:20;;;;;;;3.07;2.67;;;11.80;99.90;;;;;;1035870;28;20101;-61
2022/04/12 00:04:50;;;;;;;4.17;3.33;;;11.80;99.90;;;;;;1039462;28;20018;-61
2022/04/12 00:05:21;;;;;;;3.60;2.73;;;11.80;99.90;;;;;;1039438;28;20021;-60
2022/04/12 00:05:52;;;;;;;4.70;3.20;;;11.80;99.90;;;;;;1039984;28;20017;-61
2022/04/12 00:06:22;;;;;;;5.63;3.07;;;11.80;99.90;;;;;;1043808;28;20091;-61
2022/04/12 00:06:53;;;;;;;3.80;3.17;;;11.80;99.90;;;;;;1043751;28;20021;-62
2022/04/12 00:07:23;;;;;;;3.83;3.13;;;11.80;99.90;;;;;;1043846;28;20032;-61
2022/04/12 00:07:54;;;;;;;3.10;2.70;;;11.80;99.90;;;;;;1043743;28;20010;-61
2022/04/12 00:08:25;;;;;;;4.10;3.00;;;11.80;99.90;;;;;;1043558;28;20100;-61
2022/04/12 00:08:56;;;;;;;3.80;2.63;;;11.80;99.90;;;;;;1043433;28;20001;-61
2022/04/12 00:09:26;;;;;;;3.23;2.93;;;11.80;99.90;;;;;;1043353;28;20009;-61
2022/04/12 00:09:57;;;;;;;4.33;3.17;;;11.80;99.90;;;;;;1043441;28;21199;-61
2022/04/12 00:10:29;;;;;;;3.10;2.77;;;11.80;99.90;;;;;;1043540;28;20096;-61
2022/04/12 00:11:00;;;;;;;4.57;2.85;;;11.80;99.90;;;;;;1043370;28;20013;-60
2022/04/12 00:11:31;;;;;;;4.00;2.95;;;11.80;99.90;;;;;;1043726;28;20063;-62
2022/04/12 00:12:02;;;;;;;3.50;2.40;;;11.80;99.90;;;;;;1043171;28;20071;-62
2022/04/12 00:12:32;;;;;;;3.10;2.63;;;11.80;99.90;;;;;;1044058;28;20002;-62
2022/04/12 00:13:04;;;;;;;5.20;2.87;;;11.80;99.90;;;;;;1043743;28;20010;-61
2022/04/12 00:13:34;;;;;;;4.05;3.08;;;11.80;99.90;;;;;;1043525;28;20016;-61
2022/04/12 00:14:05;;;;;;;3.63;2.83;;;11.80;99.90;;;;;;1043376;28;20055;-60
2022/04/12 00:14:35;;;;;;;3.13;2.57;;;11.80;99.90;;;;;;1043557;28;20013;-61
2022/04/12 00:15:07;;;;;;;3.10;2.70;;;11.80;99.90;;;;;;1043215;28;20016;-60
2022/04/12 00:15:38;;;;;;;3.47;2.35;;;11.80;99.90;;;;;;1043581;28;20024;-62
2022/04/12 00:16:09;;;;;;;3.92;2.97;;;11.80;99.90;;;;;;1043465;28;20013;-63
2022/04/12 00:16:40;;;;;;;2.97;2.37;;;11.80;99.90;;;;;;1043557;28;20013;-61
2022/04/12 00:19:04;;;;;;;3.47;2.70;;;11.80;99.90;;;;;;1039916;28;20067;-61
2022/04/12 00:19:34;;;;;;;2.90;2.60;;;11.80;99.90;;;;;;1039232;28;20083;-62
2022/04/12 00:20:06;;;;;;;3.50;2.70;;;11.80;99.90;;;;;;1039304;28;20520;-62
2022/04/12 00:20:37;;;;;;;4.30;3.50;;;11.80;99.90;;;;;;1038876;28;20014;-62
2022/04/12 00:21:07;;;;;;;3.07;2.47;;;11.80;99.90;;;;;;1039088;28;20009;-61
2022/04/12 00:21:39;;;;;;;4.03;3.00;;;11.80;99.90;;;;;;1039561;28;20104;-62
2022/04/12 00:22:09;;;;;;;3.75;2.97;;;11.80;99.90;;;;;;1039373;28;20088;-61
2022/04/12 00:22:40;;;;;;;3.40;2.87;;;11.80;99.90;;;;;;1039454;28;20010;-62
2022/04/12 00:23:12;;;;;;;3.93;3.07;;;11.80;99.90;;;;;;1039477;28;20060;-62
2022/04/12 00:23:43;;;;;;;4.35;2.80;;;11.80;99.90;;;;;;1039091;28;20006;-62
2022/04/12 00:24:13;;;;;;;3.77;2.90;;;11.80;99.90;;;;;;1039223;28;20021;-61
2022/04/12 00:24:45;;;;;;;3.90;2.90;;;11.80;99.90;;;;;;1039303;28;20285;-61
2022/04/12 00:25:15;;;;;;;3.90;3.20;;;11.80;99.90;;;;;;1039277;28;20465;-62
2022/04/12 00:25:46;;;;;;;3.47;2.50;;;11.80;99.90;;;;;;1039471;28;20092;-62
2022/04/12 00:26:17;;;;;;;3.33;2.85;;;11.80;99.90;;;;;;1039675;28;20006;-62
2022/04/12 00:26:49;;;;;;;4.17;2.67;;;11.80;99.90;;;;;;1039718;28;20449;-61
2022/04/12 00:27:20;;;;;;;3.38;2.85;;;11.80;99.90;;;;;;1039592;28;20082;-61
2022/04/12 00:27:52;;;;;;;4.53;3.03;;;11.80;99.90;;;;;;1039621;28;20023;-62
2022/04/12 00:28:23;;;;;;;3.45;2.42;;;11.80;99.90;;;;;;1039602;28;20069;-62
2022/04/12 00:28:53;;;;;;;3.97;3.50;;;11.80;99.90;;;;;;1039089;28;20167;-60
2022/04/12 00:29:24;;;;;;;3.97;2.87;;;11.80;99.90;;;;;;1039337;28;20025;-61
2022/04/12 00:29:55;;;;;;;5.13;3.27;;;11.80;99.90;;;;;;1039122;28;20026;-61
2022/04/12 00:30:28;;;;;;;4.00;2.85;;;11.80;99.90;;;;;;1039286;28;20045;-61
2022/04/12 00:30:58;;;;;;;3.50;2.67;;;11.80;99.90;;;;;;1039091;28;20018;-60
2022/04/12 00:31:30;;;;;;;4.10;3.07;;;11.80;99.90;;;;;;1039454;28;20021;-62
2022/04/12 00:32:01;;;;;;;3.72;2.85;;;11.80;99.90;;;;;;1039556;28;20017;-61
2022/04/12 00:32:33;;;;;;;3.70;3.07;;;11.80;99.90;;;;;;1039804;28;20041;-62
2022/04/12 00:33:04;;;;;;;3.65;2.88;;;11.70;99.90;;;;;;1039310;28;20079;-60
2022/04/12 00:33:35;;;;;;;3.63;2.90;;;11.70;99.90;;;;;;1039880;28;20022;-61
2022/04/12 00:34:06;;;;;;;3.58;2.92;;;11.70;99.90;;;;;;1039525;28;20025;-61
2022/04/12 00:34:37;;;;;;;3.67;3.00;;;11.70;99.90;;;;;;1039893;28;20032;-60
2022/04/12 00:35:08;;;;;;;3.22;2.35;;;11.70;99.90;;;;;;1039520;28;20124;-61
2022/04/12 00:35:39;;;;;;;3.80;2.85;;;11.70;99.90;;;;;;1039728;28;20094;-60
2022/04/12 00:36:10;;;;;;;3.13;2.57;;;11.70;99.90;;;;;;1039477;28;20446;-62
2022/04/12 00:36:40;;;;;;;3.60;2.87;;;11.70;99.90;;;;;;1039809;28;20017;-61
2022/04/12 00:37:11;;;;;;;3.63;3.03;;;11.70;99.90;;;;;;1039457;28;20709;-61
2022/04/12 00:37:41;;;;;;;4.20;2.90;;;11.70;99.90;;;;;;1039733;28;20473;-61
2022/04/12 00:38:18;;;;;;;3.17;2.67;;;11.70;99.90;;;;;;1039473;28;20025;-62
2022/04/12 00:38:48;;;;;;;3.10;2.40;;;11.70;99.90;;;;;;1039561;28;20087;-63
2022/04/12 00:39:19;;;;;;;4.30;2.63;;;11.70;99.90;;;;;;1039017;28;20087;-61
2022/04/12 00:39:49;;;;;;;3.73;3.13;;;11.70;99.90;;;;;;1039522;28;20029;-62
2022/04/12 00:40:21;;;;;;;4.33;3.10;;;11.70;99.90;;;;;;1035385;28;20080;-60
2022/04/12 00:40:53;;;;;;;3.70;2.67;;;11.70;99.90;;;;;;1035665;28;20022;-62
2022/04/12 00:41:24;;;;;;;4.32;2.83;;;11.70;99.90;;;;;;1035412;28;20026;-61
2022/04/12 00:41:57;;;;;;;4.20;2.67;;;11.70;99.90;;;;;;1035321;28;20124;-61
2022/04/12 00:42:27;;;;;;;5.57;2.83;;;11.70;99.90;;;;;;1034978;28;20033;-61
2022/04/12 00:43:03;;;;;;;4.10;3.10;;;11.70;99.90;;;;;;1035341;28;20117;-62
2022/04/12 00:43:35;;;;;;;4.95;3.13;;;11.70;99.90;;;;;;1035128;28;20065;-61
2022/04/12 00:44:06;;;;;;;3.78;3.03;;;11.70;99.90;;;;;;1035521;28;20018;-61
2022/04/12 00:44:36;;;;;;;4.20;2.97;;;11.70;99.90;;;;;;1035380;28;20026;-61
2022/04/12 00:45:07;;;;;;;3.63;2.90;;;11.70;99.90;;;;;;1035120;28;20026;-68
2022/04/12 00:45:38;;;;;;;3.13;2.50;;;11.70;99.90;;;;;;1035049;28;20022;-61
2022/04/12 00:46:10;;;;;;;3.35;2.47;;;11.70;99.90;;;;;;1035288;28;20303;-61
2022/04/12 00:46:41;;;;;;;5.57;3.22;;;11.70;99.90;;;;;;1034804;28;20504;-61
2022/04/12 00:47:13;;;;;;;3.57;3.00;;;11.70;99.90;;;;;;1035353;28;20018;-60
2022/04/12 00:47:44;;;;;;;3.95;2.97;;;11.70;99.90;;;;;;1035035;28;20106;-61
2022/04/12 00:48:15;;;;;;;3.33;2.78;;;11.70;99.90;;;;;;1035082;28;20085;-61
2022/04/12 00:48:45;;;;;;;3.87;2.77;;;11.70;99.90;;;;;;1034736;28;20446;-61
2022/04/12 00:49:16;;;;;;;4.33;2.87;;;11.70;99.90;;;;;;1035131;28;20037;-62
2022/04/12 00:49:47;;;;;;;3.10;2.73;;;11.70;99.90;;;;;;1035018;28;20109;-62
2022/04/12 00:50:17;;;;;;;4.83;2.57;;;11.70;99.90;;;;;;1035156;28;20326;-62
2022/04/12 00:50:48;;;;;;;3.47;2.37;;;11.70;99.90;;;;;;1035567;28;20018;-60
2022/04/12 00:51:20;;;;;;;3.07;2.33;;;11.70;99.90;;;;;;1043487;28;20025;-62
2022/04/12 00:51:52;;;;;;;3.92;2.80;;;11.70;99.90;;;;;;1043719;28;20100;-61
2022/04/12 00:52:25;;;;;;;3.50;3.08;;;11.70;99.90;;;;;;1043716;28;20431;-61
2022/04/12 00:52:56;;;;;;;3.88;2.70;;;11.70;99.90;;;;;;1043526;28;20040;-61
2022/04/12 00:53:28;;;;;;;4.32;2.30;;;11.70;99.90;;;;;;1043849;28;20096;-60
2022/04/12 00:54:00;;;;;;;3.63;2.80;;;11.70;99.90;;;;;;1042988;28;20025;-63
2022/04/12 00:54:33;;;;;;;3.75;2.92;;;11.70;99.90;;;;;;1043515;28;20476;-61
2022/04/12 00:55:05;;;;;;;4.65;3.22;;;11.70;99.90;;;;;;1039456;28;20095;-60
2022/04/12 00:55:35;;;;;;;3.08;2.42;;;11.70;99.90;;;;;;1039490;28;20408;-61
2022/04/12 00:56:06;;;;;;;3.92;2.33;;;11.70;99.90;;;;;;1039406;28;20424;-61
2022/04/12 00:56:37;;;;;;;6.23;3.27;;;11.70;99.90;;;;;;1039741;28;20017;-61
2022/04/12 00:57:08;;;;;;;3.63;2.90;;;11.70;99.90;;;;;;1039433;28;20053;-60
2022/04/12 00:57:41;;;;;;;4.85;2.90;;;11.70;99.90;;;;;;1039317;28;20017;-60
2022/04/12 00:58:12;;;;;;;3.50;2.88;;;11.70;99.90;;;;;;1039062;28;20029;-60
2022/04/12 00:58:46;;;;;;;3.08;2.75;;;11.70;99.90;;;;;;1039065;28;20018;-60
2022/04/12 00:59:17;;;;;;;3.25;2.58;;;11.70;99.90;;;;;;1039130;28;20472;-61
2022/04/12 00:59:49;;;;;;;3.40;2.78;;;11.70;99.90;;;;;;1039602;28;20454;-61
2022/04/12 01:00:20;;;;;;;3.70;2.83;;;11.70;99.90;;;;;;1039422;28;20017;-61
2022/04/12 01:00:51;;;;;;;4.28;3.00;;;11.70;99.90;;;;;;1039814;28;20515;-61
2022/04/12 01:01:21;;;;;;;4.50;2.97;;;11.70;99.90;;;;;;1039333;28;20021;-61
2022/04/12 01:01:52;;;;;;;2.80;2.47;;;11.70;99.90;;;;;;1039344;28;20021;-62
2022/04/12 01:02:24;;;;;;;3.60;3.13;;;11.70;99.90;;;;;;1039293;28;20353;-61
2022/04/12 01:02:55;;;;;;;4.70;3.17;;;11.70;99.90;;;;;;1039641;28;20021;-61
2022/04/12 01:03:25;;;;;;;4.67;3.00;;;11.70;99.90;;;;;;1039369;28;20041;-61
2022/04/12 01:03:56;;;;;;;3.20;2.67;;;11.70;99.90;;;;;;1039308;28;20022;-61
2022/04/12 01:04:26;;;;;;;3.37;3.07;;;11.70;99.90;;;;;;1039002;28;20066;-61
2022/04/12 01:04:58;;;;;;;3.33;2.73;;;11.70;99.90;;;;;;1039309;28;20029;-61
2022/04/12 01:05:29;;;;;;;5.13;3.13;;;11.70;99.90;;;;;;1039248;28;20079;-61
2022/04/12 01:05:59;;;;;;;4.57;3.20;;;11.70;99.90;;;;;;1041106;28;20014;-66
2022/04/12 01:06:30;;;;;;;4.30;2.73;;;11.70;99.90;;;;;;1043243;28;20044;-62
2022/04/12 01:07:02;;;;;;;3.53;2.80;;;11.70;99.90;;;;;;1043410;28;20100;-62
2022/04/12 01:07:34;;;;;;;4.13;3.25;;;11.70;99.90;;;;;;1043312;28;20240;-61
2022/04/12 01:08:04;;;;;;;4.18;2.90;;;11.70;99.90;;;;;;1043274;28;20506;-61
2022/04/12 01:08:35;;;;;;;3.60;2.63;;;11.70;99.90;;;;;;1043398;28;20476;-61
2022/04/12 01:09:06;;;;;;;3.10;2.60;;;11.70;99.90;;;;;;1039098;28;20017;-62
2022/04/12 01:09:37;;;;;;;5.03;2.93;;;11.70;99.90;;;;;;1039423;28;20044;-62
2022/04/12 01:10:07;;;;;;;3.70;3.03;;;11.70;99.90;;;;;;1043360;28;20021;-61
2022/04/12 01:10:40;;;;;;;4.27;3.00;;;11.70;99.90;;;;;;1043324;28;20021;-60
2022/04/12 01:11:12;;;;;;;3.42;3.00;;;11.60;99.90;;;;;;1043811;28;20360;-61
2022/04/12 01:11:48;;;;;;;3.03;2.60;;;11.70;99.90;;;;;;1043248;28;20571;-61
2022/04/12 01:12:21;;;;;;;5.13;2.97;;;11.60;99.90;;;;;;1043336;28;20017;-63
2022/04/12 01:12:53;;;;;;;5.90;2.83;;;11.60;99.90;;;;;;1043367;28;20020;-61
2022/04/12 01:13:23;;;;;;;4.45;2.92;;;11.60;99.90;;;;;;1043456;28;20050;-61
2022/04/12 01:13:54;;;;;;;4.27;3.00;;;11.60;99.90;;;;;;1043621;28;20096;-61
2022/04/12 01:14:25;;;;;;;5.27;3.57;;;11.60;99.90;;;;;;1043689;28;20013;-61
2022/04/12 01:15:14;;;;;;;3.55;3.03;;;11.60;99.90;;;;;;1043719;28;20530;-62
2022/04/12 01:15:46;;;;;;;4.28;2.72;;;11.60;99.90;;;;;;1043627;28;20155;-60
2022/04/12 01:16:17;;;;;;;3.63;2.58;;;11.60;99.90;;;;;;1043212;28;20111;-61
2022/04/12 01:16:48;;;;;;;5.13;3.33;;;11.60;99.90;;;;;;1043471;28;20009;-61
2022/04/12 01:17:18;;;;;;;5.00;3.17;;;11.60;99.90;;;;;;1040335;28;20021;-60
2022/04/12 01:17:50;;;;;;;4.20;3.23;;;11.60;99.90;;;;;;1039204;28;20105;-62
2022/04/12 01:18:21;;;;;;;3.75;3.03;;;11.60;99.90;;;;;;1035362;28;20058;-60
2022/04/12 01:18:51;;;;;;;3.40;2.45;;;11.60;99.90;;;;;;1035176;28;20014;-61
2022/04/12 01:19:22;;;;;;;2.60;2.03;;;11.60;99.90;;;;;;1034967;28;20480;-60
2022/04/12 01:19:52;;;;;;;4.37;2.43;;;11.60;99.90;;;;;;1035356;28;20488;-62
2022/04/12 01:20:24;;;;;;;2.87;2.50;;;11.60;99.90;;;;;;1037807;28;20048;-62
2022/04/12 01:20:55;;;;;;;3.28;2.50;;;11.60;99.90;;;;;;1039632;28;20072;-61
2022/04/12 01:21:42;;;;;;;2.87;2.53;;;11.60;99.90;;;;;;1039412;28;20079;-61
2022/04/12 01:22:20;;;;;;;3.63;3.00;;;11.60;99.90;;;;;;1039579;28;20021;-61
2022/04/12 01:23:05;;;;;;;4.18;2.70;;;11.60;99.90;;;;;;1035207;28;20030;-61
2022/04/12 01:23:38;;;;;;;4.20;3.05;;;11.60;99.90;;;;;;1031153;28;20137;-60
2022/04/12 01:24:09;;;;;;;4.65;3.10;;;11.60;99.90;;;;;;1030997;28;20050;-60
2022/04/12 01:24:39;;;;;;;3.47;2.70;;;11.60;99.90;;;;;;1033463;28;20018;-60
2022/04/12 01:25:10;;;;;;;2.80;2.33;;;11.60;99.90;;;;;;1039251;28;20013;-60
2022/04/12 01:25:41;;;;;;;3.90;3.17;;;11.60;99.90;;;;;;1039232;28;20104;-61
2022/04/12 01:26:12;;;;;;;3.78;2.65;;;11.60;99.90;;;;;;1039523;28;20045;-61
2022/04/12 01:26:43;;;;;;;3.80;2.70;;;11.60;99.90;;;;;;1039356;28;20028;-61
2022/04/12 01:27:15;;;;;;;3.28;2.42;;;11.60;99.90;;;;;;1039075;28;20350;-61
2022/04/12 01:27:45;;;;;;;3.78;2.45;;;11.60;99.90;;;;;;1039245;28;20021;-61
2022/04/12 01:28:16;;;;;;;3.80;2.60;;;11.60;99.90;;;;;;1039276;28;20030;-61
2022/04/12 01:28:47;;;;;;;4.43;3.17;;;11.60;99.90;;;;;;1039120;28;20021;-60
2022/04/12 01:29:17;;;;;;;3.30;2.70;;;11.50;99.90;;;;;;1039560;28;20026;-61
2022/04/12 01:29:49;;;;;;;3.93;2.90;;;11.50;99.90;;;;;;1039135;28;20059;-62
2022/04/12 01:30:20;;;;;;;3.40;2.55;;;11.50;99.90;;;;;;1039242;28;20480;-60
2022/04/12 01:30:51;;;;;;;3.93;2.97;;;11.50;99.90;;;;;;1039121;28;20021;-61
2022/04/12 01:31:25;;;;;;;3.35;2.83;;;11.50;99.90;;;;;;1039156;28;20682;-61
2022/04/12 01:31:55;;;;;;;3.70;2.75;;;11.50;99.90;;;;;;1038960;28;20021;-60
2022/04/12 01:32:26;;;;;;;3.87;3.10;;;11.50;99.90;;;;;;1035146;28;20022;-61
2022/04/12 01:32:57;;;;;;;3.47;2.53;;;11.50;99.90;;;;;;1035017;28;20525;-62
2022/04/12 01:33:28;;;;;;;4.17;3.10;;;11.50;99.90;;;;;;1035303;28;20760;-61
2022/04/12 01:33:58;;;;;;;3.83;3.10;;;11.50;99.90;;;;;;1039162;28;20036;-61
2022/04/12 01:34:29;;;;;;;3.30;2.70;;;11.50;99.90;;;;;;1039187;28;20368;-61
2022/04/12 01:34:59;;;;;;;2.70;2.23;;;11.50;99.90;;;;;;1038911;28;20018;-61
2022/04/12 01:35:31;;;;;;;3.83;3.00;;;11.50;99.90;;;;;;1039414;28;20037;-61
2022/04/12 01:36:02;;;;;;;4.25;2.78;;;11.50;99.90;;;;;;1038811;28;20022;-61
2022/04/12 01:36:32;;;;;;;5.77;3.13;;;11.50;99.90;;;;;;1039315;28;20010;-61
2022/04/12 01:37:03;;;;;;;3.50;2.73;;;11.50;99.90;;;;;;1039039;28;20017;-61
2022/04/12 01:37:34;;;;;;;4.47;3.10;;;11.50;99.90;;;;;;1039715;28;20018;-61
2022/04/12 01:38:05;;;;;;;3.65;3.00;;;11.50;99.90;;;;;;1039310;28;20097;-61
2022/04/12 01:38:39;;;;;;;2.70;2.13;;;11.50;99.90;;;;;;1039743;28;20461;-61
2022/04/12 01:39:09;;;;;;;3.67;2.80;;;11.50;99.90;;;;;;1039222;28;20404;-60
2022/04/12 01:39:40;;;;;;;4.10;2.60;;;11.50;99.90;;;;;;1039634;28;20027;-61
2022/04/12 01:40:11;;;;;;;3.43;2.63;;;11.50;99.90;;;;;;1039370;28;20093;-62
2022/04/12 01:40:41;;;;;;;3.47;2.83;;;11.50;99.90;;;;;;1039686;28;20010;-62
2022/04/12 01:41:12;;;;;;;3.50;2.73;;;11.50;99.90;;;;;;1039326;28;20485;-62
2022/04/12 01:41:42;;;;;;;3.10;2.53;;;11.50;99.90;;;;;;1039088;28;20013;-61
2022/04/12 01:42:13;;;;;;;3.13;2.40;;;11.50;99.90;;;;;;1039113;28;20017;-62
2022/04/12 01:42:44;;;;;;;4.10;2.67;;;11.50;99.90;;;;;;1039300;28;20013;-61
2022/04/12 01:43:15;;;;;;;2.90;2.33;;;11.50;99.90;;;;;;1039091;28;20017;-61
2022/04/12 01:43:46;;;;;;;3.42;2.70;;;11.50;99.90;;;;;;1034793;28;20496;-62
2022/04/12 01:44:17;;;;;;;3.87;2.77;;;11.50;99.90;;;;;;1031124;28;20555;-61
2022/04/12 01:44:48;;;;;;;2.85;2.10;;;11.50;99.90;;;;;;1026974;28;20167;-62
2022/04/12 01:45:20;;;;;;;3.40;2.40;;;11.50;99.90;;;;;;1027143;28;20486;-60
2022/04/12 01:45:51;;;;;;;4.82;2.85;;;11.50;99.90;;;;;;1031716;28;20042;-63
2022/04/12 01:46:22;;;;;;;3.33;2.30;;;11.50;99.90;;;;;;1035092;28;20036;-62
2022/04/12 01:46:53;;;;;;;3.77;2.80;;;11.50;99.90;;;;;;1035405;28;20026;-62
2022/04/12 01:47:24;;;;;;;2.60;2.33;;;11.50;99.90;;;;;;1034992;28;20315;-61
2022/04/12 01:47:56;;;;;;;2.90;2.60;;;11.50;99.90;;;;;;1035238;28;20679;-61
2022/04/12 01:48:26;;;;;;;4.18;2.67;;;11.50;99.90;;;;;;1035081;28;20027;-61
2022/04/12 01:48:57;;;;;;;3.23;2.93;;;11.50;99.90;;;;;;1035036;28;20022;-61
2022/04/12 01:49:28;;;;;;;3.60;2.57;;;11.50;99.90;;;;;;1035051;28;20052;-60
2022/04/12 01:49:59;;;;;;;3.05;2.20;;;11.50;99.90;;;;;;1034861;28;20026;-63
2022/04/12 01:50:29;;;;;;;3.50;2.70;;;11.50;99.90;;;;;;1035074;28;20072;-61
2022/04/12 01:51:00;;;;;;;3.53;2.40;;;11.50;99.90;;;;;;1033345;28;20487;-62
2022/04/12 01:51:30;;;;;;;3.17;2.70;;;11.50;99.90;;;;;;1035365;28;20014;-63
2022/04/12 01:52:03;;;;;;;2.90;2.60;;;11.50;99.90;;;;;;1034796;28;20125;-60
2022/04/12 01:52:34;;;;;;;3.92;3.15;;;11.50;99.90;;;;;;1035209;28;20057;-61
2022/04/12 01:53:05;;;;;;;3.07;2.77;;;11.50;99.90;;;;;;1035338;28;20024;-61
2022/04/12 01:53:37;;;;;;;2.57;2.20;;;11.50;99.90;;;;;;1039359;28;20014;-61
2022/04/12 01:54:07;;;;;;;3.53;2.95;;;11.50;99.90;;;;;;1038925;28;20544;-61
2022/04/12 01:54:38;;;;;;;3.93;2.67;;;11.50;99.90;;;;;;1039236;28;20021;-62
2022/04/12 01:55:10;;;;;;;3.93;3.00;;;11.50;99.90;;;;;;1039053;28;20025;-60
2022/04/12 01:55:40;;;;;;;2.97;2.47;;;11.50;99.90;;;;;;1039272;28;20045;-62
2022/04/12 01:56:11;;;;;;;2.90;2.57;;;11.50;99.90;;;;;;1039450;28;20020;-62
2022/04/12 01:56:41;;;;;;;4.43;3.03;;;11.50;99.90;;;;;;1039602;28;20025;-62
2022/04/12 01:57:12;;;;;;;3.50;2.70;;;11.50;99.90;;;;;;1039326;28;20032;-62
2022/04/12 01:57:42;;;;;;;4.47;3.27;;;11.50;99.90;;;;;;1039499;28;20022;-62
2022/04/12 01:58:13;;;;;;;3.80;2.70;;;11.50;99.90;;;;;;1038919;28;20022;-62
2022/04/12 01:58:44;;;;;;;5.07;3.27;;;11.50;99.90;;;;;;1034996;28;20120;-61
2022/04/12 01:59:14;;;;;;;3.83;2.80;;;11.50;99.90;;;;;;1030847;28;20026;-61
2022/04/12 01:59:45;;;;;;;4.83;2.87;;;11.50;99.90;;;;;;1031178;28;20113;-62
2022/04/12 02:00:16;;;;;;;3.95;3.10;;;11.50;99.90;;;;;;1030843;28;20552;-61
2022/04/12 02:00:47;;;;;;;5.33;3.13;;;11.50;99.90;;;;;;1031537;28;20336;-62
2022/04/12 02:01:17;;;;;;;3.30;2.57;;;11.50;99.90;;;;;;1035943;28;20018;-61
2022/04/12 02:01:48;;;;;;;4.30;2.80;;;11.50;99.90;;;;;;1039886;28;20446;-62
2022/04/12 02:02:19;;;;;;;4.20;2.93;;;11.40;99.90;;;;;;1039342;28;20118;-62
2022/04/12 02:02:49;;;;;;;4.47;3.70;;;11.40;99.90;;;;;;1039751;28;20029;-61
2022/04/12 02:03:20;;;;;;;3.60;2.63;;;11.40;99.90;;;;;;1039610;28;20096;-61
2022/04/12 02:03:51;;;;;;;3.30;2.77;;;11.40;99.90;;;;;;1040017;28;20445;-62
2022/04/12 02:04:21;;;;;;;3.57;2.80;;;11.40;99.90;;;;;;1039956;28;20534;-61
2022/04/12 02:04:52;;;;;;;3.47;2.67;;;11.40;99.90;;;;;;1040416;28;20032;-61
2022/04/12 02:05:23;;;;;;;4.90;2.93;;;11.40;99.90;;;;;;1039931;28;20028;-62
2022/04/12 02:05:54;;;;;;;3.63;2.60;;;11.40;99.90;;;;;;1040977;28;20139;-62
2022/04/12 02:06:25;;;;;;;4.32;2.83;;;11.40;99.90;;;;;;1043822;28;20024;-62
2022/04/12 02:06:55;;;;;;;3.93;2.97;;;11.40;99.90;;;;;;1044204;28;20107;-61
2022/04/12 02:07:27;;;;;;;3.23;2.70;;;11.40;99.90;;;;;;1043923;28;20088;-62
2022/04/12 02:07:57;;;;;;;3.05;2.70;;;11.40;99.90;;;;;;1043939;28;20437;-62
2022/04/12 02:08:28;;;;;;;3.90;3.17;;;11.40;99.90;;;;;;1044108;28;20511;-62
2022/04/12 02:08:58;;;;;;;3.57;2.87;;;11.40;99.90;;;;;;1043862;28;20100;-62
2022/04/12 02:09:29;;;;;;;3.67;3.00;;;11.40;99.90;;;;;;1043659;28;20099;-62
2022/04/12 02:10:00;;;;;;;4.03;3.00;;;11.40;99.90;;;;;;1041422;28;20380;-62
2022/04/12 02:10:30;;;;;;;3.00;2.53;;;11.40;99.90;;;;;;1039992;28;20037;-62
2022/04/12 02:11:01;;;;;;;2.93;2.30;;;11.40;99.90;;;;;;1039728;28;20116;-62
2022/04/12 02:11:31;;;;;;;4.40;2.80;;;11.40;99.90;;;;;;1039944;28;20014;-63
2022/04/12 02:12:02;;;;;;;3.40;2.90;;;11.40;99.90;;;;;;1039767;28;20024;-60
2022/04/12 02:12:33;;;;;;;3.03;2.72;;;11.40;99.90;;;;;;1040015;28;20014;-60
2022/04/12 02:13:04;;;;;;;3.80;3.13;;;11.40;99.90;;;;;;1039700;28;20037;-62
2022/04/12 02:13:34;;;;;;;3.17;2.73;;;11.40;99.90;;;;;;1040201;28;20705;-61
2022/04/12 02:14:07;;;;;;;4.57;2.73;;;11.40;99.90;;;;;;1040060;28;20037;-61
2022/04/12 02:14:37;;;;;;;3.35;2.70;;;11.40;99.90;;;;;;1040287;28;20068;-63
2022/04/12 02:15:08;;;;;;;3.50;2.77;;;11.40;99.90;;;;;;1040176;28;20002;-62
2022/04/12 02:15:39;;;;;;;4.80;2.90;;;11.40;99.90;;;;;;1040138;28;20040;-61
2022/04/12 02:16:09;;;;;;;3.00;2.70;;;11.40;99.90;;;;;;1039634;28;20404;-60
2022/04/12 02:16:40;;;;;;;3.73;2.80;;;11.40;99.90;;;;;;1039680;28;20099;-61
2022/04/12 02:17:10;;;;;;;3.33;2.30;;;11.40;99.90;;;;;;1039834;28;20063;-61
2022/04/12 02:17:41;;;;;;;3.20;2.70;;;11.40;99.90;;;;;;1039994;28;20013;-59
2022/04/12 02:18:12;;;;;;;3.65;2.80;;;11.40;99.90;;;;;;1039619;28;20006;-62
2022/04/12 02:18:43;;;;;;;3.50;2.60;;;11.40;99.90;;;;;;1039842;28;20092;-62
2022/04/12 02:19:13;;;;;;;3.50;2.63;;;11.40;99.90;;;;;;1035678;28;20663;-62
2022/04/12 02:19:44;;;;;;;3.13;2.43;;;11.40;99.90;;;;;;1035784;28;20165;-62
2022/04/12 02:20:14;;;;;;;3.47;3.07;;;11.40;99.90;;;;;;1031743;28;20477;-62
2022/04/12 02:20:45;;;;;;;3.30;2.70;;;11.40;99.90;;;;;;1035768;28;20010;-63
2022/04/12 02:21:16;;;;;;;3.13;2.83;;;11.40;99.90;;;;;;1039617;28;20017;-62
2022/04/12 02:21:46;;;;;;;4.83;2.73;;;11.40;99.90;;;;;;1039971;28;20028;-62
2022/04/12 02:22:17;;;;;;;4.20;3.10;;;11.40;99.90;;;;;;1039755;28;20005;-60
2022/04/12 02:22:50;;;;;;;3.77;2.70;;;11.40;99.90;;;;;;1039979;28;20081;-62
2022/04/12 02:23:21;;;;;;;5.28;3.00;;;11.40;99.90;;;;;;1039452;28;20010;-60
2022/04/12 02:23:52;;;;;;;5.70;3.00;;;11.30;99.90;;;;;;1039955;28;20055;-61
2022/04/12 02:24:22;;;;;;;4.20;2.87;;;11.30;99.90;;;;;;1039853;28;20096;-62
2022/04/12 02:24:53;;;;;;;4.03;2.90;;;11.30;99.90;;;;;;1040332;28;20018;-62
2022/04/12 02:25:23;;;;;;;4.03;3.23;;;11.40;99.90;;;;;;1039995;28;20052;-61
2022/04/12 02:25:54;;;;;;;4.17;2.93;;;11.40;99.90;;;;;;1039897;28;20505;-61
2022/04/12 02:26:24;;;;;;;3.73;2.77;;;11.30;99.90;;;;;;1039679;28;20088;-62
2022/04/12 02:26:55;;;;;;;4.07;3.27;;;11.40;99.90;;;;;;1040003;28;20068;-62
2022/04/12 02:27:25;;;;;;;4.00;2.70;;;11.30;99.90;;;;;;1039719;28;20089;-62
2022/04/12 02:27:56;;;;;;;4.13;2.83;;;11.30;99.90;;;;;;1040191;28;20002;-61
2022/04/12 02:28:27;;;;;;;3.60;2.80;;;11.40;99.90;;;;;;1039857;28;20416;-61
2022/04/12 02:28:57;;;;;;;3.90;2.63;;;11.30;99.90;;;;;;1040001;28;20078;-62
2022/04/12 02:29:28;;;;;;;2.53;2.33;;;11.30;99.90;;;;;;1039637;28;20017;-61
2022/04/12 02:29:59;;;;;;;3.63;2.47;;;11.30;99.90;;;;;;1035445;28;20018;-61
2022/04/12 02:30:29;;;;;;;3.83;3.10;;;11.30;99.90;;;;;;1035817;28;20026;-62
2022/04/12 02:31:00;;;;;;;2.93;2.50;;;11.40;99.90;;;;;;1031518;28;20025;-62
2022/04/12 02:31:30;;;;;;;3.60;2.57;;;11.30;99.90;;;;;;1035921;28;20018;-63
2022/04/12 02:32:01;;;;;;;3.40;2.83;;;11.30;99.90;;;;;;1039612;28;20017;-62
2022/04/12 02:32:32;;;;;;;5.77;3.03;;;11.40;99.90;;;;;;1035574;28;20014;-63
2022/04/12 02:33:02;;;;;;;3.50;2.70;;;11.40;99.90;;;;;;1035146;28;20018;-61
2022/04/12 02:33:33;;;;;;;4.00;3.00;;;11.40;99.90;;;;;;1035454;28;20079;-62
2022/04/12 02:34:04;;;;;;;3.73;3.03;;;11.40;99.90;;;;;;1038355;28;20376;-61
2022/04/12 02:34:34;;;;;;;3.17;2.80;;;11.30;99.90;;;;;;1035773;28;20120;-61
2022/04/12 02:35:06;;;;;;;3.43;2.67;;;11.40;99.90;;;;;;1035521;28;20092;-61
2022/04/12 02:35:36;;;;;;;3.75;2.80;;;11.40;99.90;;;;;;1035931;28;20029;-61
2022/04/12 02:36:07;;;;;;;3.17;2.23;;;11.40;99.90;;;;;;1035311;28;20026;-61
2022/04/12 02:36:37;;;;;;;5.40;3.00;;;11.30;99.90;;;;;;1036222;28;20044;-62
2022/04/12 02:37:08;;;;;;;4.63;3.40;;;11.40;99.90;;;;;;1035924;28;20018;-62
2022/04/12 02:37:39;;;;;;;2.88;2.30;;;11.30;99.90;;;;;;1036048;28;20477;-62
2022/04/12 02:38:09;;;;;;;4.40;3.50;;;11.30;99.90;;;;;;1035422;28;20174;-66
2022/04/12 02:38:40;;;;;;;3.40;2.83;;;11.30;99.90;;;;;;1035764;28;20034;-61
2022/04/12 02:39:10;;;;;;;4.27;2.90;;;11.30;99.90;;;;;;1035427;28;20501;-62
2022/04/12 02:39:41;;;;;;;3.90;3.07;;;11.30;99.90;;;;;;1035590;28;20034;-61
2022/04/12 02:40:12;;;;;;;3.33;2.70;;;11.30;99.90;;;;;;1031388;28;20120;-64
2022/04/12 02:40:42;;;;;;;4.70;2.80;;;11.30;99.90;;;;;;1031616;28;20066;-63
2022/04/12 02:41:13;;;;;;;3.33;2.30;;;11.30;99.90;;;;;;1031579;28;20061;-62
2022/04/12 02:41:43;;;;;;;3.43;2.83;;;11.30;99.90;;;;;;1031883;28;20058;-62
2022/04/12 02:42:14;;;;;;;2.90;2.57;;;11.30;99.90;;;;;;1035529;28;20022;-61
2022/04/12 02:42:45;;;;;;;2.90;2.57;;;11.30;99.90;;;;;;1039796;28;20029;-62
2022/04/12 02:43:15;;;;;;;7.30;3.87;;;11.30;99.90;;;;;;1039494;28;20485;-60
2022/04/12 02:43:46;;;;;;;2.97;2.53;;;11.30;99.90;;;;;;1036049;28;20029;-61
2022/04/12 02:44:17;;;;;;;3.20;2.57;;;11.30;99.90;;;;;;1035847;28;20014;-61